Flight Track Log - Related Links

Times and Time Zones

All times are in EDT time to prevent confusion due to time zone crossing. See the N521LL flight status page for this flight to view local times or setup timezone preferences in your user account.

Time Position Orientation Groundspeed Altitude Reporting Facility
EDT Latitude Longitude Course Direction KTS MPH feet Rate Location/Type
Sun 02:31:34 PM 33.6444 -101.8322 90° East 166 191 3,900  Level Fort Worth Center
Sun 02:32:17 PM 33.6075 -101.8178 162° South 210 242 5,800 2,913 Climbing Fort Worth Center
Sun 02:33:17 PM 33.6083 -101.7306 89° East 268 308 8,900 3,145 Climbing Fort Worth Center
Sun 02:34:42 PM 33.6500 -101.6103 67° East 283 326 13,400 3,021 Climbing Fort Worth Center
Sun 02:35:42 PM 33.6778 -101.5294 68° East 283 326 16,200 2,750 Climbing Fort Worth Center
Sun 02:36:42 PM 33.7083 -101.4233 71° East 297 342 18,900 2,350 Climbing Fort Worth Center
Sun 02:37:00 PM 33.7334 -101.1278 90° East  Level FlightAware Approximate
Sun 02:37:42 PM 33.7364 -101.3297 70° East 309 356 20,900  Level Fort Worth Center
Sun 02:38:42 PM 33.7444 -101.2003 86° East 338 389 21,900 2,000 Climbing Fort Worth Center
Sun 02:39:42 PM 33.7478 -101.0956 88° East 351 404 24,900 2,550 Climbing Fort Worth Center
Sun 02:40:42 PM 33.7511 -100.9783 88° East 328 377 27,000 1,041 Climbing Fort Worth Center
Sun 02:41:43 PM 33.7583 -100.8636 86° East 348 400 27,000  Level Fort Worth Center
Sun 02:42:42 PM 33.7625 -100.7139 88° East 394 453 27,000  Level Fort Worth Center
Sun 02:43:42 PM 33.7697 -100.5917 86° East 405 466 27,000  Level Fort Worth Center
Sun 02:44:42 PM 33.7756 -100.4469 87° East 417 480 27,000  Level Fort Worth Center
Sun 02:45:42 PM 33.7869 -100.3100 84° East 422 486 27,000  Level Fort Worth Center
Sun 02:46:42 PM 33.8214 -100.1761 73° East 422 486 27,000  Level Fort Worth Center
Sun 02:47:42 PM 33.8536 -100.0397 74° East 417 480 27,000  Level Fort Worth Center
Sun 02:48:42 PM 33.8897 -99.9056 72° East 417 480 27,000  Level Fort Worth Center
Sun 02:49:42 PM 33.9047 -99.7708 82° East 412 474 27,000  Level Fort Worth Center
Sun 02:50:42 PM 33.8825 -99.6278 101° East 412 474 27,000  Level Fort Worth Center
Sun 02:51:42 PM 33.8536 -99.4844 104° East 417 480 27,000  Level Fort Worth Center
Sun 02:52:42 PM 33.8267 -99.3311 102° East 424 488 27,000  Level Fort Worth Center
Sun 02:53:42 PM 33.7975 -99.1931 104° East 431 496 27,000  Level Fort Worth Center
Sun 02:54:42 PM 33.7722 -99.0528 102° East 436 502 27,000 -400 Level Fort Worth Center
Sun 02:55:42 PM 33.7447 -98.9322 105° East 424 488 26,200 -1,000 Descending Fort Worth Center
Sun 02:56:42 PM 33.7233 -98.7969 101° East 414 476 25,000 -600 Descending Fort Worth Center
Sun 02:57:42 PM 33.6975 -98.6667 103° East 401 461 25,000 -200 Level Fort Worth Center
Sun 02:58:42 PM 33.6694 -98.5342 104° East 401 461 24,600 -1,250 Descending Fort Worth Center
Sun 02:59:42 PM 33.6433 -98.4064 104° East 395 455 22,500 -2,300 Descending Fort Worth Center
Sun 03:00:42 PM 33.6172 -98.2714 103° East 388 447 20,000 -2,500 Descending Fort Worth Center
Sun 03:01:42 PM 33.5931 -98.1567 104° East 370 426 17,500 -2,300 Descending Fort Worth Center
Sun 03:02:42 PM 33.5686 -98.0367 104° East 364 419 15,400 -1,650 Descending Fort Worth Center
Sun 03:03:42 PM 33.5442 -97.9169 104° East 359 413 14,200 -1,200 Descending Fort Worth Center
Sun 03:04:42 PM 33.5217 -97.8147 105° East 354 407 13,000 -1,250 Descending Fort Worth Center
Sun 03:05:42 PM 33.4969 -97.6925 104° East 348 400 11,700 -1,050 Descending Fort Worth Center
Sun 03:06:42 PM 33.4719 -97.5828 105° East 338 389 10,900 -1,000 Descending Fort Worth Center
Sun 03:07:42 PM 33.4511 -97.4781 103° East 333 383 9,700 -1,700 Descending Fort Worth Center
Sun 03:08:42 PM 33.3886 -97.4108 138° Southeast 306 352 7,500 -2,100 Descending Fort Worth Center
Sun 03:09:42 PM 33.3594 -97.3264 112° Southeast 281 323 5,500 -1,250 Descending Fort Worth Center
Sun 03:10:42 PM 33.3592 -97.2394 90° East 261 300 5,000 -250 Descending Fort Worth Center
Sun 03:11:42 PM 33.3550 -97.1497 93° East 261 300 5,000 -200 Level Fort Worth Center
Sun 03:12:42 PM 33.3486 -97.0728 96° East 270 311 4,600 -500 Descending Fort Worth Center
Sun 03:13:42 PM 33.3439 -96.9708 93° East 270 311 4,000 -300 Descending Fort Worth Center
Sun 03:14:42 PM 33.3353 -96.8889 97° East 275 316 4,000  Level Fort Worth Center
Sun 03:15:42 PM 33.2683 -96.8544 157° South 233 268 4,000  Level Fort Worth Center
Sun 03:16:42 PM 33.2036 -96.8450 173° South 233 268 4,000  Level Fort Worth Center
Sun 03:17:42 PM 33.1264 -96.8553 186° South 253 291 4,000  Level Fort Worth Center
Sun 03:18:42 PM 33.0639 -96.8656 188° South 258 297 4,000 -923 Level Fort Worth Center
Sun 03:19:26 PM 33.0000 -96.8833 193° South 258 297 2,400 -1,212 Descending Dallas / Fort Worth TRACON
Sun 03:20:26 PM 32.9333 -96.8833 180° South 227 261 1,900 -500 Descending Dallas / Fort Worth TRACON
Sun 03:22:00 PM 32.8471 -96.8518 140° Southeast  Level Estimated
Sun 03:29:00 PM 32.8471 -96.8518 140° Southeast  Level Estimated
Sun 03:30:00 PM 32.8471 -96.8518 140° Southeast  Level Estimated

Login

Don't have an account? Register now (free) for customized features, flight alerts, and more!